Littorina — DLMG — position and weather

sailwx.info

Track history (hours):
 
Tides and Currents Weather Stations Pressure Air Temp Water Temp Dewpoint Dewpoint Depression Visibility Wind Speed Wind Dir Waves Ship Positions

Oceanographic research ship Littorina (Germany)

Detailed information on ship capabilities available from University of Delaware's Ocean Information Center.

Last reported at 2019-Jan-15 14:21 UTC. Time now 2019-Feb-16 03:02 UTC.
Position N 54°38' E 009°56'.
Warning: this ship's position is 31 days out of date.

Length 30 m; draft 2.9 m.

Type: Dredging. MMSI: 211214250.

Date/timePositionNaut miles runAvg speedWind from/ knotsBaromVisibWave heightAir tempDewpointWater temp
2019-Jan-15 14:21N 54°38' E 009°56'0 0.0
2019-Jan-15 13:54N 54°38' E 009°56'0 0.1
2019-Jan-15 13:24N 54°38' E 009°56'0 0.1
2019-Jan-15 11:56N 54°38' E 009°56'0 0.0
2019-Jan-15 04:30N 54°38' E 009°56'0 0.0
2019-Jan-15 02:57N 54°38' E 009°56'2 0.1
2019-Jan-14 10:41N 54°40' E 009°56'4 3.9
2019-Jan-14 09:36N 54°39' E 010°03'1 9.4
2019-Jan-14 09:29N 54°38' E 010°04'6 9.0
2019-Jan-14 08:51N 54°33' E 010°08'3 7.7
2019-Jan-14 08:30N 54°31' E 010°10'4 7.5
2019-Jan-14 08:00N 54°28' E 010°13'4 8.3
2019-Jan-14 07:30N 54°24' E 010°12'3 5.7
2019-Jan-14 07:00N 54°21' E 010°10'1 2.9
2019-Jan-14 06:30N 54°20' E 010°09'0 0.0
2019-Jan-14 05:50N 54°20' E 010°09'0 0.0
2019-Jan-14 05:29N 54°20' E 010°09'0 0.0
2019-Jan-14 04:53N 54°20' E 010°09'0 0.0
2019-Jan-14 04:23N 54°20' E 010°09'0 0.0
2019-Jan-14 03:47N 54°20' E 010°09'0 0.0
2019-Jan-14 03:23N 54°20' E 010°09'0 0.0
2019-Jan-14 02:50N 54°20' E 010°09'0 0.0
2019-Jan-14 02:20N 54°20' E 010°09'0 0.0
2019-Jan-14 01:53N 54°20' E 010°09'0 0.0
2019-Jan-14 01:26N 54°20' E 010°09'0 0.0
2019-Jan-14 00:53N 54°20' E 010°09'0 0.0
2019-Jan-14 00:26N 54°20' E 010°09'0 0.0
2019-Jan-13 23:56N 54°20' E 010°09'0 0.0
2019-Jan-13 23:26N 54°20' E 010°09'0 0.0
2019-Jan-13 22:59N 54°20' E 010°09'0 0.0
2019-Jan-13 22:14N 54°20' E 010°09'0 0.0
2019-Jan-13 21:59N 54°20' E 010°09'0 0.0
2019-Jan-13 21:29N 54°20' E 010°09'0 0.0
2019-Jan-13 20:59N 54°20' E 010°09'0 0.0
2019-Jan-13 20:29N 54°20' E 010°09'0 0.0
2019-Jan-13 19:59N 54°20' E 010°09'0 0.0
2019-Jan-13 19:29N 54°20' E 010°09'0 0.0
2019-Jan-13 18:59N 54°20' E 010°09'0 0.0
2019-Jan-13 18:29N 54°20' E 010°09'0 0.0
2019-Jan-13 17:59N 54°20' E 010°09'0 0.0
2019-Jan-13 17:29N 54°20' E 010°09'0 0.0
2019-Jan-13 16:59N 54°20' E 010°09'0 0.0
2019-Jan-13 16:29N 54°20' E 010°09'0 0.0
2019-Jan-13 15:50N 54°20' E 010°09'0 0.0
2019-Jan-13 15:17N 54°20' E 010°09'0 0.0
2019-Jan-13 14:59N 54°20' E 010°09'0 0.0
2019-Jan-13 14:20N 54°20' E 010°09'0 0.0
2019-Jan-13 13:50N 54°20' E 010°09'0 0.0
2019-Jan-13 13:23N 54°20' E 010°09'0 0.0
2019-Jan-13 12:53N 54°20' E 010°09'0 0.0
2019-Jan-13 12:08N 54°20' E 010°09'0 0.0
2019-Jan-13 11:53N 54°20' E 010°09'0 0.0
2019-Jan-13 11:26N 54°20' E 010°09'0 0.0
2019-Jan-13 10:53N 54°20' E 010°09'0 0.0
2019-Jan-13 10:26N 54°20' E 010°09'0 0.0
2019-Jan-13 09:56N 54°20' E 010°09'0 0.0
2019-Jan-13 09:26N 54°20' E 010°09'0 0.0
2019-Jan-13 08:56N 54°20' E 010°09'0 0.0
2019-Jan-13 08:29N 54°20' E 010°09'0 0.0
2019-Jan-13 07:59N 54°20' E 010°09'0 0.0
2019-Jan-13 07:29N 54°20' E 010°09'0 0.0
2019-Jan-13 06:59N 54°20' E 010°09'0 0.0
2019-Jan-13 06:29N 54°20' E 010°09'0 0.0
2019-Jan-13 05:59N 54°20' E 010°09'0 0.0
2019-Jan-13 05:29N 54°20' E 010°09'0 0.0
2019-Jan-13 04:59N 54°20' E 010°09'0 0.0
2019-Jan-13 04:29N 54°20' E 010°09'0 0.0
2019-Jan-13 03:59N 54°20' E 010°09'0 0.0
2019-Jan-13 03:29N 54°20' E 010°09'0 0.0
2019-Jan-13 02:59N 54°20' E 010°09'0 0.0
2019-Jan-13 02:29N 54°20' E 010°09'0 0.0
2019-Jan-13 01:59N 54°20' E 010°09'0 0.0
2019-Jan-13 01:29N 54°20' E 010°09'0 0.0
2019-Jan-13 00:59N 54°20' E 010°09'0 0.0
2019-Jan-13 00:20N 54°20' E 010°09'0 0.0
2019-Jan-12 23:59N 54°20' E 010°09'0 0.0
2019-Jan-12 23:20N 54°20' E 010°09'0 0.0
2019-Jan-12 22:53N 54°20' E 010°09'0 0.0
2019-Jan-12 22:23N 54°20' E 010°09'0 0.0
2019-Jan-12 21:53N 54°20' E 010°09'0 0.0
2019-Jan-12 21:23N 54°20' E 010°09'0 0.0
2019-Jan-12 20:50N 54°20' E 010°09'0 0.0
2019-Jan-12 20:23N 54°20' E 010°09'0 0.0
2019-Jan-12 19:53N 54°20' E 010°09'0 0.0
2019-Jan-12 19:26N 54°20' E 010°09'0 0.0
2019-Jan-12 18:56N 54°20' E 010°09'0 0.0
2019-Jan-12 18:26N 54°20' E 010°09'0 0.0
2019-Jan-12 17:56N 54°20' E 010°09'0 0.0
2019-Jan-12 17:26N 54°20' E 010°09'0 0.0
2019-Jan-12 16:56N 54°20' E 010°09'0 0.0
2019-Jan-12 16:29N 54°20' E 010°09'0 0.0
2019-Jan-12 15:59N 54°20' E 010°09'0 0.0
2019-Jan-12 15:29N 54°20' E 010°09'0 0.0
2019-Jan-12 14:59N 54°20' E 010°09'0 0.0
2019-Jan-12 14:29N 54°20' E 010°09'0 0.0
2019-Jan-12 13:59N 54°20' E 010°09'0 0.0
2019-Jan-12 13:29N 54°20' E 010°09'0 0.0
2019-Jan-12 12:59N 54°20' E 010°09'0 0.0
2019-Jan-12 12:29N 54°20' E 010°09'0 0.0
2019-Jan-12 11:59N 54°20' E 010°09'0 0.0
2019-Jan-12 11:29N 54°20' E 010°09'0 0.0
2019-Jan-12 10:59N 54°20' E 010°09'0 0.0
2019-Jan-12 10:20N 54°20' E 010°09'0 0.0
2019-Jan-12 09:47N 54°20' E 010°09'0 0.0
2019-Jan-12 09:29N 54°20' E 010°09'0 0.0
2019-Jan-12 08:50N 54°20' E 010°09'0 0.0
2019-Jan-12 08:20N 54°20' E 010°09'0 0.0
2019-Jan-12 07:50N 54°20' E 010°09'0 0.0
2019-Jan-12 07:23N 54°20' E 010°09'0 0.0
2019-Jan-12 06:53N 54°20' E 010°09'0 0.0
2019-Jan-12 06:23N 54°20' E 010°09'0 0.0
2019-Jan-12 05:53N 54°20' E 010°09'0 0.0
2019-Jan-12 05:23N 54°20' E 010°09'0 0.0
2019-Jan-12 04:56N 54°20' E 010°09'0 0.0
2019-Jan-12 04:26N 54°20' E 010°09'0 0.0
2019-Jan-12 03:56N 54°20' E 010°09'0 0.0
2019-Jan-12 03:26N 54°20' E 010°09'0 0.0
2019-Jan-12 02:29N 54°20' E 010°09'0 0.0
2019-Jan-12 01:56N 54°20' E 010°09'0 0.0
2019-Jan-12 01:23N 54°20' E 010°09'0 0.0
2019-Jan-12 00:56N 54°20' E 010°09'0 0.0
2019-Jan-12 00:29N 54°20' E 010°09'0 0.0
2019-Jan-11 23:59N 54°20' E 010°09'0 0.0
2019-Jan-11 23:26N 54°20' E 010°09'0 0.0
2019-Jan-11 22:59N 54°20' E 010°09'0 0.0
2019-Jan-11 22:29N 54°20' E 010°09'0 0.0
2019-Jan-11 21:59N 54°20' E 010°09'0 0.0
2019-Jan-11 21:29N 54°20' E 010°09'0 0.0
2019-Jan-11 20:59N 54°20' E 010°09'0 0.0
2019-Jan-11 20:29N 54°20' E 010°09'0 0.0
2019-Jan-11 19:59N 54°20' E 010°09'0 0.0
2019-Jan-11 19:29N 54°20' E 010°09'0 0.0
2019-Jan-11 18:59N 54°20' E 010°09'0 0.0
2019-Jan-11 18:20N 54°20' E 010°09'0 0.0
2019-Jan-11 17:50N 54°20' E 010°09'0 0.0
2019-Jan-11 17:20N 54°20' E 010°09'0 0.0
2019-Jan-11 16:50N 54°20' E 010°09'0 0.0
2019-Jan-11 16:23N 54°20' E 010°09'0 0.0
2019-Jan-11 15:53N 54°20' E 010°09'0 0.0
2019-Jan-11 15:23N 54°20' E 010°09'0 0.0
2019-Jan-11 14:53N 54°20' E 010°09'0 0.0
2019-Jan-11 14:23N 54°20' E 010°09'0 0.0
2019-Jan-11 13:56N 54°20' E 010°09'0 0.0
2019-Jan-11 13:26N 54°20' E 010°09'0 0.0
2019-Jan-11 12:53N 54°20' E 010°09'0 0.0
2019-Jan-11 12:26N 54°20' E 010°09'0 0.0
2019-Jan-11 11:56N 54°20' E 010°09'0 0.0
2019-Jan-11 11:26N 54°20' E 010°09'0 0.0
2019-Jan-11 10:56N 54°20' E 010°09'0 0.0
2019-Jan-11 10:29N 54°20' E 010°09'0 0.0
2019-Jan-11 09:59N 54°20' E 010°09'0 0.0
2019-Jan-11 09:29N 54°20' E 010°09'0 0.0
2019-Jan-11 08:59N 54°20' E 010°09'0 0.0
2019-Jan-11 08:29N 54°20' E 010°09'0 0.0
2019-Jan-11 07:59N 54°20' E 010°09'0 0.0
2019-Jan-11 07:29N 54°20' E 010°09'0 0.0
2019-Jan-11 06:59N 54°20' E 010°09'0 0.0
2019-Jan-11 06:29N 54°20' E 010°09'0 0.0
2019-Jan-11 05:59N 54°20' E 010°09'0 0.0
2019-Jan-11 05:29N 54°20' E 010°09'0 0.0
2019-Jan-11 04:59N 54°20' E 010°09'0 0.0
2019-Jan-11 04:29N 54°20' E 010°09'0 0.0
2019-Jan-11 03:59N 54°20' E 010°09'0 0.0
2019-Jan-11 03:17N 54°20' E 010°09'0 0.0
2019-Jan-11 02:47N 54°20' E 010°09'0 0.0
2019-Jan-11 02:20N 54°20' E 010°09'0 0.0
2019-Jan-11 01:53N 54°20' E 010°09'0 0.0
2019-Jan-11 01:08N 54°20' E 010°09'0 0.0
2019-Jan-11 00:50N 54°20' E 010°09'0 0.0
2019-Jan-11 00:23N 54°20' E 010°09'0 0.0
2019-Jan-10 23:38N 54°20' E 010°09'0 0.0
2019-Jan-10 23:20N 54°20' E 010°09'0 0.0
2019-Jan-10 22:56N 54°20' E 010°09'0 0.0
2019-Jan-10 22:26N 54°20' E 010°09'0 0.0
2019-Jan-10 21:56N 54°20' E 010°09'0 0.0
2019-Jan-10 21:26N 54°20' E 010°09'0 0.0
2019-Jan-10 20:56N 54°20' E 010°09'0 0.0
2019-Jan-10 20:26N 54°20' E 010°09'0 0.0
2019-Jan-10 19:56N 54°20' E 010°09'0 0.0
2019-Jan-10 19:29N 54°20' E 010°09'0 0.0
2019-Jan-10 18:59N 54°20' E 010°09'0 0.0
2019-Jan-10 18:29N 54°20' E 010°09'0 0.0
2019-Jan-10 17:59N 54°20' E 010°09'0 0.0
2019-Jan-10 17:29N 54°20' E 010°09'0 0.0
2019-Jan-10 16:59N 54°20' E 010°09'0 0.0
2019-Jan-10 16:29N 54°20' E 010°09'0 0.0
2019-Jan-10 15:59N 54°20' E 010°09'0 0.0
2019-Jan-10 15:29N 54°20' E 010°09'0 0.0
2019-Jan-10 14:59N 54°20' E 010°09'0 0.0
2019-Jan-10 14:29N 54°20' E 010°09'0 0.0
2019-Jan-10 13:59N 54°20' E 010°09'0 0.0
2019-Jan-10 13:29N 54°20' E 010°09'0 0.0
2019-Jan-10 12:59N 54°20' E 010°09'0 0.0
2019-Jan-10 12:20N 54°20' E 010°09'0 0.0
2019-Jan-10 11:50N 54°20' E 010°09'0 0.0
2019-Jan-10 11:20N 54°20' E 010°09'0 0.0
2019-Jan-10 10:50N 54°20' E 010°09'0 0.0
2019-Jan-10 10:23N 54°20' E 010°09'0 0.0
2019-Jan-10 09:53N 54°20' E 010°09'0 0.0
2019-Jan-10 09:23N 54°20' E 010°09'0 0.0
2019-Jan-10 08:53N 54°20' E 010°09'0 0.0
2019-Jan-10 08:23N 54°20' E 010°09'0 0.0
2019-Jan-10 07:53N 54°20' E 010°09'0 0.0
2019-Jan-10 07:26N 54°20' E 010°09'0 0.0
2019-Jan-10 06:56N 54°20' E 010°09'0 0.0
2019-Jan-10 06:14N 54°20' E 010°09'0 0.0
2019-Jan-10 05:44N 54°20' E 010°09'0 0.0
2019-Jan-10 05:14N 54°20' E 010°09'0 0.0
2019-Jan-10 04:59N 54°20' E 010°09'0 0.0
2019-Jan-10 04:26N 54°20' E 010°09'0 0.0
2019-Jan-10 03:59N 54°20' E 010°09'0 0.0
2019-Jan-10 03:29N 54°20' E 010°09'0 0.0
2019-Jan-10 02:59N 54°20' E 010°09'0 0.0
2019-Jan-10 02:29N 54°20' E 010°09'0 0.0
2019-Jan-10 01:56N 54°20' E 010°09'0 0.0
2019-Jan-10 01:29N 54°20' E 010°09'0 0.0
2019-Jan-10 00:59N 54°20' E 010°09'0 0.0
2019-Jan-10 00:29N 54°20' E 010°09'0 0.0
2019-Jan-09 23:59N 54°20' E 010°09'0 0.0
2019-Jan-09 23:29N 54°20' E 010°09'0 0.0
2019-Jan-09 22:59N 54°20' E 010°09'0 0.0
2019-Jan-09 22:29N 54°20' E 010°09'0 0.0
2019-Jan-09 21:50N 54°20' E 010°09'0 0.0
2019-Jan-09 21:20N 54°20' E 010°09'0 0.0
2019-Jan-09 20:50N 54°20' E 010°09'0 0.0
2019-Jan-09 20:23N 54°20' E 010°09'0 0.0
2019-Jan-09 19:53N 54°20' E 010°09'0 0.0
2019-Jan-09 19:20N 54°20' E 010°09'0 0.0
2019-Jan-09 18:50N 54°20' E 010°09'0 0.0
2019-Jan-09 18:26N 54°20' E 010°09'0 0.0
2019-Jan-09 17:53N 54°20' E 010°09'0 0.0
2019-Jan-09 17:20N 54°20' E 010°09'0 0.0
2019-Jan-09 16:56N 54°20' E 010°09'0 0.0
2019-Jan-09 16:20N 54°20' E 010°09'0 0.0
2019-Jan-09 15:38N 54°20' E 010°09'0 0.0
2019-Jan-09 15:26N 54°20' E 010°09'0 0.0
2019-Jan-09 14:59N 54°20' E 010°09'0 0.0
2019-Jan-09 14:26N 54°20' E 010°09'0 0.0
2019-Jan-09 13:59N 54°20' E 010°09'0 0.0
2019-Jan-09 13:29N 54°20' E 010°09'0 0.0
2019-Jan-09 12:56N 54°20' E 010°09'0 0.0
2019-Jan-09 12:14N 54°20' E 010°09'0 0.0
2019-Jan-09 11:59N 54°20' E 010°09'0 0.0
2019-Jan-09 11:29N 54°20' E 010°09'0 0.0
2019-Jan-09 10:59N 54°20' E 010°09'0 0.0
2019-Jan-09 10:29N 54°20' E 010°09'0 0.0
2019-Jan-09 09:59N 54°20' E 010°09'0 0.0
2019-Jan-09 09:29N 54°20' E 010°09'0 0.0
2019-Jan-09 08:59N 54°20' E 010°09'0 0.0
2019-Jan-09 08:20N 54°20' E 010°09'0 0.0
2019-Jan-09 07:50N 54°20' E 010°09'0 0.0
2019-Jan-09 07:29N 54°20' E 010°09'0 0.0
2019-Jan-09 06:50N 54°20' E 010°09'0 0.0
2019-Jan-09 06:20N 54°20' E 010°09'0 0.0
2019-Jan-09 05:50N 54°20' E 010°09'0 0.0
2019-Jan-09 05:23N 54°20' E 010°09'0 0.0
2019-Jan-09 04:35N 54°20' E 010°09'0 0.0
2019-Jan-09 04:23N 54°20' E 010°09'0 0.0
2019-Jan-09 03:53N 54°20' E 010°09'0 0.0
2019-Jan-09 03:08N 54°20' E 010°09'0 0.0
2019-Jan-09 02:53N 54°20' E 010°09'0 0.0
2019-Jan-09 02:23N 54°20' E 010°09'0 0.0
2019-Jan-09 01:41N 54°20' E 010°09'0 0.0
2019-Jan-09 01:23N 54°20' E 010°09'0 0.0
2019-Jan-09 00:56N 54°20' E 010°09'0 0.0
2019-Jan-09 00:20N 54°20' E 010°09'0 0.0
2019-Jan-08 23:56N 54°20' E 010°09'0 0.0
2019-Jan-08 23:26N 54°20' E 010°09'0 0.0
2019-Jan-08 22:44N 54°20' E 010°09'0 0.0
2019-Jan-08 22:29N 54°20' E 010°09'0 0.0
2019-Jan-08 21:58N 54°20' E 010°09'0 0.0
2019-Jan-08 21:29N 54°20' E 010°09'0 0.0
2019-Jan-08 20:59N 54°20' E 010°09'0 0.0
2019-Jan-08 20:29N 54°20' E 010°09'0 0.0
2019-Jan-08 19:59N 54°20' E 010°09'0 0.0
2019-Jan-08 19:29N 54°20' E 010°09'0 0.0
2019-Jan-08 18:59N 54°20' E 010°09'0 0.0
2019-Jan-08 18:20N 54°20' E 010°09'0 0.0
2019-Jan-08 17:50N 54°20' E 010°09'0 0.0
2019-Jan-08 17:29N 54°20' E 010°09'0 0.0
2019-Jan-08 16:59N 54°20' E 010°09'0 0.0
2019-Jan-08 16:20N 54°20' E 010°09'0 0.0
2019-Jan-08 15:50N 54°20' E 010°09'0 0.0
2019-Jan-08 15:20N 54°20' E 010°09'0 0.0
2019-Jan-08 14:53N 54°20' E 010°09'0 0.0
2019-Jan-08 14:23N 54°20' E 010°09'0 0.0
2019-Jan-08 13:53N 54°20' E 010°09'0 0.0
2019-Jan-08 13:23N 54°20' E 010°09'0 0.0
2019-Jan-08 12:53N 54°20' E 010°09'0 0.0
2019-Jan-08 12:23N 54°20' E 010°09'0 0.0
2019-Jan-08 11:53N 54°20' E 010°09'0 0.0
2019-Jan-08 11:23N 54°20' E 010°09'0 0.0
2019-Jan-08 10:56N 54°20' E 010°09'0 0.0
2019-Jan-08 10:26N 54°20' E 010°09'0 0.0
2019-Jan-08 09:55N 54°20' E 010°09'0 0.0
2019-Jan-08 09:26N 54°20' E 010°09'0 0.0
2019-Jan-08 08:56N 54°20' E 010°09'0 0.0
2019-Jan-08 08:25N 54°20' E 010°09'0 0.0
2019-Jan-08 07:59N 54°20' E 010°09'0 0.0
2019-Jan-08 07:28N 54°20' E 010°09'0 0.0
2019-Jan-08 06:59N 54°20' E 010°09'0 0.0
2019-Jan-08 06:28N 54°20' E 010°09'0 0.0
2019-Jan-08 05:59N 54°20' E 010°09'0 0.0
2019-Jan-08 05:28N 54°20' E 010°09'0 0.0
2019-Jan-08 04:58N 54°20' E 010°09'0 0.0
2019-Jan-08 04:28N 54°20' E 010°09'0 0.0
2019-Jan-08 03:44N 54°20' E 010°09'0 0.0
2019-Jan-08 03:16N 54°20' E 010°09'0 0.0
2019-Jan-08 02:46N 54°20' E 010°09'0 0.0
2019-Jan-08 02:28N 54°20' E 010°09'0 0.0
2019-Jan-08 01:58N 54°20' E 010°09'0 0.0
2019-Jan-08 01:28N 54°20' E 010°09'0 0.0
2019-Jan-08 00:58N 54°20' E 010°09'0 0.0
2019-Jan-08 00:23N 54°20' E 010°09'0 0.0
2019-Jan-07 23:49N 54°20' E 010°09'0 0.0
2019-Jan-07 23:19N 54°20' E 010°09'0 0.0
2019-Jan-07 22:52N 54°20' E 010°09'0 0.0
2019-Jan-07 22:22N 54°20' E 010°09'0 0.0
2019-Jan-07 21:52N 54°20' E 010°09'0 0.0
2019-Jan-07 21:22N 54°20' E 010°09'0 0.0
2019-Jan-07 20:52N 54°20' E 010°09'0 0.0
2019-Jan-07 20:22N 54°20' E 010°09'0 0.0
2019-Jan-07 19:55N 54°20' E 010°09'0 0.0
2019-Jan-07 19:25N 54°20' E 010°09'0 0.0
2019-Jan-07 18:55N 54°20' E 010°09'0 0.0
2019-Jan-07 18:25N 54°20' E 010°09'0 0.0
2019-Jan-07 17:55N 54°20' E 010°09'0 0.0
2019-Jan-07 17:25N 54°20' E 010°09'0 0.0
2019-Jan-07 16:58N 54°20' E 010°09'0 0.0
2019-Jan-07 16:28N 54°20' E 010°09'0 0.0
2019-Jan-07 15:58N 54°20' E 010°09'1 2.8
2019-Jan-07 15:31N 54°21' E 010°10'2 4.7
2019-Jan-07 15:01N 54°23' E 010°11'3 5.1
2019-Jan-07 14:30N 54°26' E 010°12'0 0.9
2019-Jan-07 14:00N 54°26' E 010°11'1 1.8
2019-Jan-07 13:30N 54°26' E 010°12'0 0.5
2019-Jan-07 13:00N 54°26' E 010°12'0 0.4
2019-Jan-07 12:30N 54°25' E 010°12'1 1.2
2019-Jan-07 12:00N 54°26' E 010°11'0 0.0
2019-Jan-07 11:30N 54°26' E 010°11'0 0.3
2019-Jan-07 11:00N 54°26' E 010°12'2 3.2
2019-Jan-07 10:31N 54°24' E 010°12'2 4.5
2019-Jan-07 10:00N 54°22' E 010°11'2 4.6
2019-Jan-07 09:30N 54°20' E 010°09'0 0.4
2019-Jan-07 09:00N 54°20' E 010°09'0 0.0
2019-Jan-07 08:24N 54°20' E 010°09'0 0.0
2019-Jan-07 07:54N 54°20' E 010°09'0 0.0
2019-Jan-07 07:24N 54°20' E 010°09'0 0.0
2019-Jan-07 06:54N 54°20' E 010°09'0 0.0
2019-Jan-07 06:27N 54°20' E 010°09'0 0.0
2019-Jan-07 05:54N 54°20' E 010°09'0 0.0
2019-Jan-07 05:27N 54°20' E 010°09'0 0.0
2019-Jan-07 04:57N 54°20' E 010°09'0 0.0
2019-Jan-07 04:27N 54°20' E 010°09'0 0.0
2019-Jan-07 04:00N 54°20' E 010°09'0 0.0
2019-Jan-07 03:27N 54°20' E 010°09'0 0.0
2019-Jan-07 03:00N 54°20' E 010°09'0 0.0
2019-Jan-07 02:30N 54°20' E 010°09'0 0.0
2019-Jan-07 02:00N 54°20' E 010°09'0 0.0
2019-Jan-07 01:30N 54°20' E 010°09'0 0.0
2019-Jan-07 01:00N 54°20' E 010°09'0 0.0
2019-Jan-07 00:30N 54°20' E 010°09'0 0.0
2019-Jan-07 00:00N 54°20' E 010°09'0 0.0
2019-Jan-06 23:30N 54°20' E 010°09'0 0.0
2019-Jan-06 23:00N 54°20' E 010°09'0 0.0
2019-Jan-06 22:30N 54°20' E 010°09'0 0.0
2019-Jan-06 22:00N 54°20' E 010°09'0 0.0
2019-Jan-06 21:30N 54°20' E 010°09'0 0.0
2019-Jan-06 21:00N 54°20' E 010°09'0 0.0
2019-Jan-06 20:30N 54°20' E 010°09'0 0.0
2019-Jan-06 20:00N 54°20' E 010°09'0 0.0
2019-Jan-06 19:21N 54°20' E 010°09'0 0.0
2019-Jan-06 19:00N 54°20' E 010°09'0 0.0
2019-Jan-06 18:21N 54°20' E 010°09'0 0.0
2019-Jan-06 17:54N 54°20' E 010°09'0 0.0
2019-Jan-06 17:24N 54°20' E 010°09'0 0.0
2019-Jan-06 16:54N 54°20' E 010°09'0 0.0
2019-Jan-06 16:24N 54°20' E 010°09'0 0.0
2019-Jan-06 15:54N 54°20' E 010°09'0 0.0
2019-Jan-06 15:24N 54°20' E 010°09'0 0.0
2019-Jan-06 14:57N 54°20' E 010°09'0 0.0
2019-Jan-06 14:27N 54°20' E 010°09'0 0.0
2019-Jan-06 13:57N 54°20' E 010°09'0 0.0
2019-Jan-06 13:27N 54°20' E 010°09'0 0.0
2019-Jan-06 12:57N 54°20' E 010°09'0 0.0
2019-Jan-06 12:30N 54°20' E 010°09'0 0.0
2019-Jan-06 12:00N 54°20' E 010°09'0 0.0
2019-Jan-06 11:30N 54°20' E 010°09'0 0.0
2019-Jan-06 11:00N 54°20' E 010°09'0 0.0
2019-Jan-06 10:30N 54°20' E 010°09'0 0.0
2019-Jan-06 10:00N 54°20' E 010°09'0 0.0
2019-Jan-06 09:30N 54°20' E 010°09'0 0.0
2019-Jan-06 09:00N 54°20' E 010°09'0 0.0
2019-Jan-06 08:30N 54°20' E 010°09'0 0.0
2019-Jan-06 08:00N 54°20' E 010°09'0 0.0
2019-Jan-06 07:30N 54°20' E 010°09'0 0.0
2019-Jan-06 07:00N 54°20' E 010°09'0 0.0
2019-Jan-06 06:30N 54°20' E 010°09'0 0.0
2019-Jan-06 06:00N 54°20' E 010°09'0 0.0
2019-Jan-06 05:21N 54°20' E 010°09'0 0.0
2019-Jan-06 05:00N 54°20' E 010°09'0 0.0
2019-Jan-06 04:24N 54°20' E 010°09'0 0.0
2019-Jan-06 03:54N 54°20' E 010°09'0 0.0
2019-Jan-06 03:24N 54°20' E 010°09'0 0.0
2019-Jan-06 02:54N 54°20' E 010°09'0 0.0
2019-Jan-06 02:21N 54°20' E 010°09'0 0.0
2019-Jan-06 01:54N 54°20' E 010°09'0 0.0
2019-Jan-06 01:24N 54°20' E 010°09'0 0.0
2019-Jan-06 00:54N 54°20' E 010°09'0 0.0
2019-Jan-06 00:24N 54°20' E 010°09'0 0.0
2019-Jan-05 23:57N 54°20' E 010°09'0 0.0
2019-Jan-05 23:24N 54°20' E 010°09'0 0.0
2019-Jan-05 22:57N 54°20' E 010°09'0 0.0
2019-Jan-05 22:27N 54°20' E 010°09'0 0.0
2019-Jan-05 21:57N 54°20' E 010°09'0 0.0
2019-Jan-05 21:27N 54°20' E 010°09'0 0.0
2019-Jan-05 21:00N 54°20' E 010°09'0 0.0
2019-Jan-05 20:30N 54°20' E 010°09'0 0.0
2019-Jan-05 20:00N 54°20' E 010°09'0 0.0
2019-Jan-05 19:30N 54°20' E 010°09'0 0.0
2019-Jan-05 19:00N 54°20' E 010°09'0 0.0
2019-Jan-05 18:30N 54°20' E 010°09'0 0.0
2019-Jan-05 18:00N 54°20' E 010°09'0 0.0
2019-Jan-05 17:30N 54°20' E 010°09'0 0.0
2019-Jan-05 17:00N 54°20' E 010°09'0 0.0
2019-Jan-05 16:30N 54°20' E 010°09'0 0.0
2019-Jan-05 16:00N 54°20' E 010°09'0 0.0
2019-Jan-05 15:30N 54°20' E 010°09'0 0.0
2019-Jan-05 15:00N 54°20' E 010°09'0 0.0
2019-Jan-05 14:30N 54°20' E 010°09'  
Track history (hours):
 
Tides and Currents Weather Stations Pressure Air Temp Water Temp Dewpoint Dewpoint Depression Visibility Wind Speed Wind Dir Waves Ship Positions

Oceanographic research ship Littorina (Germany)

Detailed information on ship capabilities available from University of Delaware's Ocean Information Center.

Last reported at 2019-Jan-15 14:21 UTC. Time now 2019-Feb-16 03:02 UTC.
Position N 54°38' E 009°56'.
Warning: this ship's position is 31 days out of date.

Length 30 m; draft 2.9 m.

Type: Dredging. MMSI: 211214250.

Date/timePositionNaut miles runAvg speedWind from/ knotsBaromVisibWave heightAir tempDewpointWater temp
2019-Jan-15 14:21N 54°38' E 009°56'0 0.0
2019-Jan-15 13:54N 54°38' E 009°56'0 0.1
2019-Jan-15 13:24N 54°38' E 009°56'0 0.1
2019-Jan-15 11:56N 54°38' E 009°56'0 0.0
2019-Jan-15 04:30N 54°38' E 009°56'0 0.0
2019-Jan-15 02:57N 54°38' E 009°56'2 0.1
2019-Jan-14 10:41N 54°40' E 009°56'4 3.9
2019-Jan-14 09:36N 54°39' E 010°03'1 9.4
2019-Jan-14 09:29N 54°38' E 010°04'6 9.0
2019-Jan-14 08:51N 54°33' E 010°08'3 7.7
2019-Jan-14 08:30N 54°31' E 010°10'4 7.5
2019-Jan-14 08:00N 54°28' E 010°13'4 8.3
2019-Jan-14 07:30N 54°24' E 010°12'3 5.7
2019-Jan-14 07:00N 54°21' E 010°10'1 2.9
2019-Jan-14 06:30N 54°20' E 010°09'0 0.0
2019-Jan-14 05:50N 54°20' E 010°09'0 0.0
2019-Jan-14 05:29N 54°20' E 010°09'0 0.0
2019-Jan-14 04:53N 54°20' E 010°09'0 0.0
2019-Jan-14 04:23N 54°20' E 010°09'0 0.0
2019-Jan-14 03:47N 54°20' E 010°09'0 0.0
2019-Jan-14 03:23N 54°20' E 010°09'0 0.0
2019-Jan-14 02:50N 54°20' E 010°09'0 0.0
2019-Jan-14 02:20N 54°20' E 010°09'0 0.0
2019-Jan-14 01:53N 54°20' E 010°09'0 0.0
2019-Jan-14 01:26N 54°20' E 010°09'0 0.0
2019-Jan-14 00:53N 54°20' E 010°09'0 0.0
2019-Jan-14 00:26N 54°20' E 010°09'0 0.0
2019-Jan-13 23:56N 54°20' E 010°09'0 0.0
2019-Jan-13 23:26N 54°20' E 010°09'0 0.0
2019-Jan-13 22:59N 54°20' E 010°09'0 0.0
2019-Jan-13 22:14N 54°20' E 010°09'0 0.0
2019-Jan-13 21:59N 54°20' E 010°09'0 0.0
2019-Jan-13 21:29N 54°20' E 010°09'0 0.0
2019-Jan-13 20:59N 54°20' E 010°09'0 0.0
2019-Jan-13 20:29N 54°20' E 010°09'0 0.0
2019-Jan-13 19:59N 54°20' E 010°09'0 0.0
2019-Jan-13 19:29N 54°20' E 010°09'0 0.0
2019-Jan-13 18:59N 54°20' E 010°09'0 0.0
2019-Jan-13 18:29N 54°20' E 010°09'0 0.0
2019-Jan-13 17:59N 54°20' E 010°09'0 0.0
2019-Jan-13 17:29N 54°20' E 010°09'0 0.0
2019-Jan-13 16:59N 54°20' E 010°09'0 0.0
2019-Jan-13 16:29N 54°20' E 010°09'0 0.0
2019-Jan-13 15:50N 54°20' E 010°09'0 0.0
2019-Jan-13 15:17N 54°20' E 010°09'0 0.0
2019-Jan-13 14:59N 54°20' E 010°09'0 0.0
2019-Jan-13 14:20N 54°20' E 010°09'0 0.0
2019-Jan-13 13:50N 54°20' E 010°09'0 0.0
2019-Jan-13 13:23N 54°20' E 010°09'0 0.0
2019-Jan-13 12:53N 54°20' E 010°09'0 0.0
2019-Jan-13 12:08N 54°20' E 010°09'0 0.0
2019-Jan-13 11:53N 54°20' E 010°09'0 0.0
2019-Jan-13 11:26N 54°20' E 010°09'0 0.0
2019-Jan-13 10:53N 54°20' E 010°09'0 0.0
2019-Jan-13 10:26N 54°20' E 010°09'0 0.0
2019-Jan-13 09:56N 54°20' E 010°09'0 0.0
2019-Jan-13 09:26N 54°20' E 010°09'0 0.0
2019-Jan-13 08:56N 54°20' E 010°09'0 0.0
2019-Jan-13 08:29N 54°20' E 010°09'0 0.0
2019-Jan-13 07:59N 54°20' E 010°09'0 0.0
2019-Jan-13 07:29N 54°20' E 010°09'0 0.0
2019-Jan-13 06:59N 54°20' E 010°09'0 0.0
2019-Jan-13 06:29N 54°20' E 010°09'0 0.0
2019-Jan-13 05:59N 54°20' E 010°09'0 0.0
2019-Jan-13 05:29N 54°20' E 010°09'0 0.0
2019-Jan-13 04:59N 54°20' E 010°09'0 0.0
2019-Jan-13 04:29N 54°20' E 010°09'0 0.0
2019-Jan-13 03:59N 54°20' E 010°09'0 0.0
2019-Jan-13 03:29N 54°20' E 010°09'0 0.0
2019-Jan-13 02:59N 54°20' E 010°09'0 0.0
2019-Jan-13 02:29N 54°20' E 010°09'0 0.0
2019-Jan-13 01:59N 54°20' E 010°09'0 0.0
2019-Jan-13 01:29N 54°20' E 010°09'0 0.0
2019-Jan-13 00:59N 54°20' E 010°09'0 0.0
2019-Jan-13 00:20N 54°20' E 010°09'0 0.0
2019-Jan-12 23:59N 54°20' E 010°09'0 0.0
2019-Jan-12 23:20N 54°20' E 010°09'0 0.0
2019-Jan-12 22:53N 54°20' E 010°09'0 0.0
2019-Jan-12 22:23N 54°20' E 010°09'0 0.0
2019-Jan-12 21:53N 54°20' E 010°09'0 0.0
2019-Jan-12 21:23N 54°20' E 010°09'0 0.0
2019-Jan-12 20:50N 54°20' E 010°09'0 0.0
2019-Jan-12 20:23N 54°20' E 010°09'0 0.0
2019-Jan-12 19:53N 54°20' E 010°09'0 0.0
2019-Jan-12 19:26N 54°20' E 010°09'0 0.0
2019-Jan-12 18:56N 54°20' E 010°09'0 0.0
2019-Jan-12 18:26N 54°20' E 010°09'0 0.0
2019-Jan-12 17:56N 54°20' E 010°09'0 0.0
2019-Jan-12 17:26N 54°20' E 010°09'0 0.0
2019-Jan-12 16:56N 54°20' E 010°09'0 0.0
2019-Jan-12 16:29N 54°20' E 010°09'0 0.0
2019-Jan-12 15:59N 54°20' E 010°09'0 0.0
2019-Jan-12 15:29N 54°20' E 010°09'0 0.0
2019-Jan-12 14:59N 54°20' E 010°09'0 0.0
2019-Jan-12 14:29N 54°20' E 010°09'0 0.0
2019-Jan-12 13:59N 54°20' E 010°09'0 0.0
2019-Jan-12 13:29N 54°20' E 010°09'0 0.0
2019-Jan-12 12:59N 54°20' E 010°09'0 0.0
2019-Jan-12 12:29N 54°20' E 010°09'0 0.0
2019-Jan-12 11:59N 54°20' E 010°09'0 0.0
2019-Jan-12 11:29N 54°20' E 010°09'0 0.0
2019-Jan-12 10:59N 54°20' E 010°09'0 0.0
2019-Jan-12 10:20N 54°20' E 010°09'0 0.0
2019-Jan-12 09:47N 54°20' E 010°09'0 0.0
2019-Jan-12 09:29N 54°20' E 010°09'0 0.0
2019-Jan-12 08:50N 54°20' E 010°09'0 0.0
2019-Jan-12 08:20N 54°20' E 010°09'0 0.0
2019-Jan-12 07:50N 54°20' E 010°09'0 0.0
2019-Jan-12 07:23N 54°20' E 010°09'0 0.0
2019-Jan-12 06:53N 54°20' E 010°09'0 0.0
2019-Jan-12 06:23N 54°20' E 010°09'0 0.0
2019-Jan-12 05:53N 54°20' E 010°09'0 0.0
2019-Jan-12 05:23N 54°20' E 010°09'0 0.0
2019-Jan-12 04:56N 54°20' E 010°09'0 0.0
2019-Jan-12 04:26N 54°20' E 010°09'0 0.0
2019-Jan-12 03:56N 54°20' E 010°09'0 0.0
2019-Jan-12 03:26N 54°20' E 010°09'0 0.0
2019-Jan-12 02:29N 54°20' E 010°09'0 0.0
2019-Jan-12 01:56N 54°20' E 010°09'0 0.0
2019-Jan-12 01:23N 54°20' E 010°09'0 0.0
2019-Jan-12 00:56N 54°20' E 010°09'0 0.0
2019-Jan-12 00:29N 54°20' E 010°09'0 0.0
2019-Jan-11 23:59N 54°20' E 010°09'0 0.0
2019-Jan-11 23:26N 54°20' E 010°09'0 0.0
2019-Jan-11 22:59N 54°20' E 010°09'0 0.0
2019-Jan-11 22:29N 54°20' E 010°09'0 0.0
2019-Jan-11 21:59N 54°20' E 010°09'0 0.0
2019-Jan-11 21:29N 54°20' E 010°09'0 0.0
2019-Jan-11 20:59N 54°20' E 010°09'0 0.0
2019-Jan-11 20:29N 54°20' E 010°09'0 0.0
2019-Jan-11 19:59N 54°20' E 010°09'0 0.0
2019-Jan-11 19:29N 54°20' E 010°09'0 0.0
2019-Jan-11 18:59N 54°20' E 010°09'0 0.0
2019-Jan-11 18:20N 54°20' E 010°09'0 0.0
2019-Jan-11 17:50N 54°20' E 010°09'0 0.0
2019-Jan-11 17:20N 54°20' E 010°09'0 0.0
2019-Jan-11 16:50N 54°20' E 010°09'0 0.0
2019-Jan-11 16:23N 54°20' E 010°09'0 0.0
2019-Jan-11 15:53N 54°20' E 010°09'0 0.0
2019-Jan-11 15:23N 54°20' E 010°09'0 0.0
2019-Jan-11 14:53N 54°20' E 010°09'0 0.0
2019-Jan-11 14:23N 54°20' E 010°09'0 0.0
2019-Jan-11 13:56N 54°20' E 010°09'0 0.0
2019-Jan-11 13:26N 54°20' E 010°09'0 0.0
2019-Jan-11 12:53N 54°20' E 010°09'0 0.0
2019-Jan-11 12:26N 54°20' E 010°09'0 0.0
2019-Jan-11 11:56N 54°20' E 010°09'0 0.0
2019-Jan-11 11:26N 54°20' E 010°09'0 0.0
2019-Jan-11 10:56N 54°20' E 010°09'0 0.0
2019-Jan-11 10:29N 54°20' E 010°09'0 0.0
2019-Jan-11 09:59N 54°20' E 010°09'0 0.0
2019-Jan-11 09:29N 54°20' E 010°09'0 0.0
2019-Jan-11 08:59N 54°20' E 010°09'0 0.0
2019-Jan-11 08:29N 54°20' E 010°09'0 0.0
2019-Jan-11 07:59N 54°20' E 010°09'0 0.0
2019-Jan-11 07:29N 54°20' E 010°09'0 0.0
2019-Jan-11 06:59N 54°20' E 010°09'0 0.0
2019-Jan-11 06:29N 54°20' E 010°09'0 0.0
2019-Jan-11 05:59N 54°20' E 010°09'0 0.0
2019-Jan-11 05:29N 54°20' E 010°09'0 0.0
2019-Jan-11 04:59N 54°20' E 010°09'0 0.0
2019-Jan-11 04:29N 54°20' E 010°09'0 0.0
2019-Jan-11 03:59N 54°20' E 010°09'0 0.0
2019-Jan-11 03:17N 54°20' E 010°09'0 0.0
2019-Jan-11 02:47N 54°20' E 010°09'0 0.0
2019-Jan-11 02:20N 54°20' E 010°09'0 0.0
2019-Jan-11 01:53N 54°20' E 010°09'0 0.0
2019-Jan-11 01:08N 54°20' E 010°09'0 0.0
2019-Jan-11 00:50N 54°20' E 010°09'0 0.0
2019-Jan-11 00:23N 54°20' E 010°09'0 0.0
2019-Jan-10 23:38N 54°20' E 010°09'0 0.0
2019-Jan-10 23:20N 54°20' E 010°09'0 0.0
2019-Jan-10 22:56N 54°20' E 010°09'0 0.0
2019-Jan-10 22:26N 54°20' E 010°09'0 0.0
2019-Jan-10 21:56N 54°20' E 010°09'0 0.0
2019-Jan-10 21:26N 54°20' E 010°09'0 0.0
2019-Jan-10 20:56N 54°20' E 010°09'0 0.0
2019-Jan-10 20:26N 54°20' E 010°09'0 0.0
2019-Jan-10 19:56N 54°20' E 010°09'0 0.0
2019-Jan-10 19:29N 54°20' E 010°09'0 0.0
2019-Jan-10 18:59N 54°20' E 010°09'0 0.0
2019-Jan-10 18:29N 54°20' E 010°09'0 0.0
2019-Jan-10 17:59N 54°20' E 010°09'0 0.0
2019-Jan-10 17:29N 54°20' E 010°09'0 0.0
2019-Jan-10 16:59N 54°20' E 010°09'0 0.0
2019-Jan-10 16:29N 54°20' E 010°09'0 0.0
2019-Jan-10 15:59N 54°20' E 010°09'0 0.0
2019-Jan-10 15:29N 54°20' E 010°09'0 0.0
2019-Jan-10 14:59N 54°20' E 010°09'0 0.0
2019-Jan-10 14:29N 54°20' E 010°09'0 0.0
2019-Jan-10 13:59N 54°20' E 010°09'0 0.0
2019-Jan-10 13:29N 54°20' E 010°09'0 0.0
2019-Jan-10 12:59N 54°20' E 010°09'0 0.0
2019-Jan-10 12:20N 54°20' E 010°09'0 0.0
2019-Jan-10 11:50N 54°20' E 010°09'0 0.0
2019-Jan-10 11:20N 54°20' E 010°09'0 0.0
2019-Jan-10 10:50N 54°20' E 010°09'0 0.0
2019-Jan-10 10:23N 54°20' E 010°09'0 0.0
2019-Jan-10 09:53N 54°20' E 010°09'0 0.0
2019-Jan-10 09:23N 54°20' E 010°09'0 0.0
2019-Jan-10 08:53N 54°20' E 010°09'0 0.0
2019-Jan-10 08:23N 54°20' E 010°09'0 0.0
2019-Jan-10 07:53N 54°20' E 010°09'0 0.0
2019-Jan-10 07:26N 54°20' E 010°09'0 0.0
2019-Jan-10 06:56N 54°20' E 010°09'0 0.0
2019-Jan-10 06:14N 54°20' E 010°09'0 0.0
2019-Jan-10 05:44N 54°20' E 010°09'0 0.0
2019-Jan-10 05:14N 54°20' E 010°09'0 0.0
2019-Jan-10 04:59N 54°20' E 010°09'0 0.0
2019-Jan-10 04:26N 54°20' E 010°09'0 0.0
2019-Jan-10 03:59N 54°20' E 010°09'0 0.0
2019-Jan-10 03:29N 54°20' E 010°09'0 0.0
2019-Jan-10 02:59N 54°20' E 010°09'0 0.0
2019-Jan-10 02:29N 54°20' E 010°09'0 0.0
2019-Jan-10 01:56N 54°20' E 010°09'0 0.0
2019-Jan-10 01:29N 54°20' E 010°09'0 0.0
2019-Jan-10 00:59N 54°20' E 010°09'0 0.0
2019-Jan-10 00:29N 54°20' E 010°09'0 0.0
2019-Jan-09 23:59N 54°20' E 010°09'0 0.0
2019-Jan-09 23:29N 54°20' E 010°09'0 0.0
2019-Jan-09 22:59N 54°20' E 010°09'0 0.0
2019-Jan-09 22:29N 54°20' E 010°09'0 0.0
2019-Jan-09 21:50N 54°20' E 010°09'0 0.0
2019-Jan-09 21:20N 54°20' E 010°09'0 0.0
2019-Jan-09 20:50N 54°20' E 010°09'0 0.0
2019-Jan-09 20:23N 54°20' E 010°09'0 0.0
2019-Jan-09 19:53N 54°20' E 010°09'0 0.0
2019-Jan-09 19:20N 54°20' E 010°09'0 0.0
2019-Jan-09 18:50N 54°20' E 010°09'0 0.0
2019-Jan-09 18:26N 54°20' E 010°09'0 0.0
2019-Jan-09 17:53N 54°20' E 010°09'0 0.0
2019-Jan-09 17:20N 54°20' E 010°09'0 0.0
2019-Jan-09 16:56N 54°20' E 010°09'0 0.0
2019-Jan-09 16:20N 54°20' E 010°09'0 0.0
2019-Jan-09 15:38N 54°20' E 010°09'0 0.0
2019-Jan-09 15:26N 54°20' E 010°09'0 0.0
2019-Jan-09 14:59N 54°20' E 010°09'0 0.0
2019-Jan-09 14:26N 54°20' E 010°09'0 0.0
2019-Jan-09 13:59N 54°20' E 010°09'0 0.0
2019-Jan-09 13:29N 54°20' E 010°09'0 0.0
2019-Jan-09 12:56N 54°20' E 010°09'0 0.0
2019-Jan-09 12:14N 54°20' E 010°09'0 0.0
2019-Jan-09 11:59N 54°20' E 010°09'0 0.0
2019-Jan-09 11:29N 54°20' E 010°09'0 0.0
2019-Jan-09 10:59N 54°20' E 010°09'0 0.0
2019-Jan-09 10:29N 54°20' E 010°09'0 0.0
2019-Jan-09 09:59N 54°20' E 010°09'0 0.0
2019-Jan-09 09:29N 54°20' E 010°09'0 0.0
2019-Jan-09 08:59N 54°20' E 010°09'0 0.0
2019-Jan-09 08:20N 54°20' E 010°09'0 0.0
2019-Jan-09 07:50N 54°20' E 010°09'0 0.0
2019-Jan-09 07:29N 54°20' E 010°09'0 0.0
2019-Jan-09 06:50N 54°20' E 010°09'0 0.0
2019-Jan-09 06:20N 54°20' E 010°09'0 0.0
2019-Jan-09 05:50N 54°20' E 010°09'0 0.0
2019-Jan-09 05:23N 54°20' E 010°09'0 0.0
2019-Jan-09 04:35N 54°20' E 010°09'0 0.0
2019-Jan-09 04:23N 54°20' E 010°09'0 0.0
2019-Jan-09 03:53N 54°20' E 010°09'0 0.0
2019-Jan-09 03:08N 54°20' E 010°09'0 0.0
2019-Jan-09 02:53N 54°20' E 010°09'0 0.0
2019-Jan-09 02:23N 54°20' E 010°09'0 0.0
2019-Jan-09 01:41N 54°20' E 010°09'0 0.0
2019-Jan-09 01:23N 54°20' E 010°09'0 0.0
2019-Jan-09 00:56N 54°20' E 010°09'0 0.0
2019-Jan-09 00:20N 54°20' E 010°09'0 0.0
2019-Jan-08 23:56N 54°20' E 010°09'0 0.0
2019-Jan-08 23:26N 54°20' E 010°09'0 0.0
2019-Jan-08 22:44N 54°20' E 010°09'0 0.0
2019-Jan-08 22:29N 54°20' E 010°09'0 0.0
2019-Jan-08 21:58N 54°20' E 010°09'0 0.0
2019-Jan-08 21:29N 54°20' E 010°09'0 0.0
2019-Jan-08 20:59N 54°20' E 010°09'0 0.0
2019-Jan-08 20:29N 54°20' E 010°09'0 0.0
2019-Jan-08 19:59N 54°20' E 010°09'0 0.0
2019-Jan-08 19:29N 54°20' E 010°09'0 0.0
2019-Jan-08 18:59N 54°20' E 010°09'0 0.0
2019-Jan-08 18:20N 54°20' E 010°09'0 0.0
2019-Jan-08 17:50N 54°20' E 010°09'0 0.0
2019-Jan-08 17:29N 54°20' E 010°09'0 0.0
2019-Jan-08 16:59N 54°20' E 010°09'0 0.0
2019-Jan-08 16:20N 54°20' E 010°09'0 0.0
2019-Jan-08 15:50N 54°20' E 010°09'0 0.0
2019-Jan-08 15:20N 54°20' E 010°09'0 0.0
2019-Jan-08 14:53N 54°20' E 010°09'0 0.0
2019-Jan-08 14:23N 54°20' E 010°09'0 0.0
2019-Jan-08 13:53N 54°20' E 010°09'0 0.0
2019-Jan-08 13:23N 54°20' E 010°09'0 0.0
2019-Jan-08 12:53N 54°20' E 010°09'0 0.0
2019-Jan-08 12:23N 54°20' E 010°09'0 0.0
2019-Jan-08 11:53N 54°20' E 010°09'0 0.0
2019-Jan-08 11:23N 54°20' E 010°09'0 0.0
2019-Jan-08 10:56N 54°20' E 010°09'0 0.0
2019-Jan-08 10:26N 54°20' E 010°09'0 0.0
2019-Jan-08 09:55N 54°20' E 010°09'0 0.0
2019-Jan-08 09:26N 54°20' E 010°09'0 0.0
2019-Jan-08 08:56N 54°20' E 010°09'0 0.0
2019-Jan-08 08:25N 54°20' E 010°09'0 0.0
2019-Jan-08 07:59N 54°20' E 010°09'0 0.0
2019-Jan-08 07:28N 54°20' E 010°09'0 0.0
2019-Jan-08 06:59N 54°20' E 010°09'0 0.0
2019-Jan-08 06:28N 54°20' E 010°09'0 0.0
2019-Jan-08 05:59N 54°20' E 010°09'0 0.0
2019-Jan-08 05:28N 54°20' E 010°09'0 0.0
2019-Jan-08 04:58N 54°20' E 010°09'0 0.0
2019-Jan-08 04:28N 54°20' E 010°09'0 0.0
2019-Jan-08 03:44N 54°20' E 010°09'0 0.0
2019-Jan-08 03:16N 54°20' E 010°09'0 0.0
2019-Jan-08 02:46N 54°20' E 010°09'0 0.0
2019-Jan-08 02:28N 54°20' E 010°09'0 0.0
2019-Jan-08 01:58N 54°20' E 010°09'0 0.0
2019-Jan-08 01:28N 54°20' E 010°09'0 0.0
2019-Jan-08 00:58N 54°20' E 010°09'0 0.0
2019-Jan-08 00:23N 54°20' E 010°09'0 0.0
2019-Jan-07 23:49N 54°20' E 010°09'0 0.0
2019-Jan-07 23:19N 54°20' E 010°09'0 0.0
2019-Jan-07 22:52N 54°20' E 010°09'0 0.0
2019-Jan-07 22:22N 54°20' E 010°09'0 0.0
2019-Jan-07 21:52N 54°20' E 010°09'0 0.0
2019-Jan-07 21:22N 54°20' E 010°09'0 0.0
2019-Jan-07 20:52N 54°20' E 010°09'0 0.0
2019-Jan-07 20:22N 54°20' E 010°09'0 0.0
2019-Jan-07 19:55N 54°20' E 010°09'0 0.0
2019-Jan-07 19:25N 54°20' E 010°09'0 0.0
2019-Jan-07 18:55N 54°20' E 010°09'0 0.0
2019-Jan-07 18:25N 54°20' E 010°09'0 0.0
2019-Jan-07 17:55N 54°20' E 010°09'0 0.0
2019-Jan-07 17:25N 54°20' E 010°09'0 0.0
2019-Jan-07 16:58N 54°20' E 010°09'0 0.0
2019-Jan-07 16:28N 54°20' E 010°09'0 0.0
2019-Jan-07 15:58N 54°20' E 010°09'1 2.8
2019-Jan-07 15:31N 54°21' E 010°10'2 4.7
2019-Jan-07 15:01N 54°23' E 010°11'3 5.1
2019-Jan-07 14:30N 54°26' E 010°12'0 0.9
2019-Jan-07 14:00N 54°26' E 010°11'1 1.8
2019-Jan-07 13:30N 54°26' E 010°12'0 0.5
2019-Jan-07 13:00N 54°26' E 010°12'0 0.4
2019-Jan-07 12:30N 54°25' E 010°12'1 1.2
2019-Jan-07 12:00N 54°26' E 010°11'0 0.0
2019-Jan-07 11:30N 54°26' E 010°11'0 0.3
2019-Jan-07 11:00N 54°26' E 010°12'2 3.2
2019-Jan-07 10:31N 54°24' E 010°12'2 4.5
2019-Jan-07 10:00N 54°22' E 010°11'2 4.6
2019-Jan-07 09:30N 54°20' E 010°09'0 0.4
2019-Jan-07 09:00N 54°20' E 010°09'0 0.0
2019-Jan-07 08:24N 54°20' E 010°09'0 0.0
2019-Jan-07 07:54N 54°20' E 010°09'0 0.0
2019-Jan-07 07:24N 54°20' E 010°09'0 0.0
2019-Jan-07 06:54N 54°20' E 010°09'0 0.0
2019-Jan-07 06:27N 54°20' E 010°09'0 0.0
2019-Jan-07 05:54N 54°20' E 010°09'0 0.0
2019-Jan-07 05:27N 54°20' E 010°09'0 0.0
2019-Jan-07 04:57N 54°20' E 010°09'0 0.0
2019-Jan-07 04:27N 54°20' E 010°09'0 0.0
2019-Jan-07 04:00N 54°20' E 010°09'0 0.0
2019-Jan-07 03:27N 54°20' E 010°09'0 0.0
2019-Jan-07 03:00N 54°20' E 010°09'0 0.0
2019-Jan-07 02:30N 54°20' E 010°09'0 0.0
2019-Jan-07 02:00N 54°20' E 010°09'0 0.0
2019-Jan-07 01:30N 54°20' E 010°09'0 0.0
2019-Jan-07 01:00N 54°20' E 010°09'0 0.0
2019-Jan-07 00:30N 54°20' E 010°09'0 0.0
2019-Jan-07 00:00N 54°20' E 010°09'0 0.0
2019-Jan-06 23:30N 54°20' E 010°09'0 0.0
2019-Jan-06 23:00N 54°20' E 010°09'0 0.0
2019-Jan-06 22:30N 54°20' E 010°09'0 0.0
2019-Jan-06 22:00N 54°20' E 010°09'0 0.0
2019-Jan-06 21:30N 54°20' E 010°09'0 0.0
2019-Jan-06 21:00N 54°20' E 010°09'0 0.0
2019-Jan-06 20:30N 54°20' E 010°09'0 0.0
2019-Jan-06 20:00N 54°20' E 010°09'0 0.0
2019-Jan-06 19:21N 54°20' E 010°09'0 0.0
2019-Jan-06 19:00N 54°20' E 010°09'0 0.0
2019-Jan-06 18:21N 54°20' E 010°09'0 0.0
2019-Jan-06 17:54N 54°20' E 010°09'0 0.0
2019-Jan-06 17:24N 54°20' E 010°09'0 0.0
2019-Jan-06 16:54N 54°20' E 010°09'0 0.0
2019-Jan-06 16:24N 54°20' E 010°09'0 0.0
2019-Jan-06 15:54N 54°20' E 010°09'0 0.0
2019-Jan-06 15:24N 54°20' E 010°09'0 0.0
2019-Jan-06 14:57N 54°20' E 010°09'0 0.0
2019-Jan-06 14:27N 54°20' E 010°09'0 0.0
2019-Jan-06 13:57N 54°20' E 010°09'0 0.0
2019-Jan-06 13:27N 54°20' E 010°09'0 0.0
2019-Jan-06 12:57N 54°20' E 010°09'0 0.0
2019-Jan-06 12:30N 54°20' E 010°09'0 0.0
2019-Jan-06 12:00N 54°20' E 010°09'0 0.0
2019-Jan-06 11:30N 54°20' E 010°09'0 0.0
2019-Jan-06 11:00N 54°20' E 010°09'0 0.0
2019-Jan-06 10:30N 54°20' E 010°09'0 0.0
2019-Jan-06 10:00N 54°20' E 010°09'0 0.0
2019-Jan-06 09:30N 54°20' E 010°09'0 0.0
2019-Jan-06 09:00N 54°20' E 010°09'0 0.0
2019-Jan-06 08:30N 54°20' E 010°09'0 0.0
2019-Jan-06 08:00N 54°20' E 010°09'0 0.0
2019-Jan-06 07:30N 54°20' E 010°09'0 0.0
2019-Jan-06 07:00N 54°20' E 010°09'0 0.0
2019-Jan-06 06:30N 54°20' E 010°09'0 0.0
2019-Jan-06 06:00N 54°20' E 010°09'0 0.0
2019-Jan-06 05:21N 54°20' E 010°09'0 0.0
2019-Jan-06 05:00N 54°20' E 010°09'0 0.0
2019-Jan-06 04:24N 54°20' E 010°09'0 0.0
2019-Jan-06 03:54N 54°20' E 010°09'0 0.0
2019-Jan-06 03:24N 54°20' E 010°09'0 0.0
2019-Jan-06 02:54N 54°20' E 010°09'0 0.0
2019-Jan-06 02:21N 54°20' E 010°09'0 0.0
2019-Jan-06 01:54N 54°20' E 010°09'0 0.0
2019-Jan-06 01:24N 54°20' E 010°09'0 0.0
2019-Jan-06 00:54N 54°20' E 010°09'0 0.0
2019-Jan-06 00:24N 54°20' E 010°09'0 0.0
2019-Jan-05 23:57N 54°20' E 010°09'0 0.0
2019-Jan-05 23:24N 54°20' E 010°09'0 0.0
2019-Jan-05 22:57N 54°20' E 010°09'0 0.0
2019-Jan-05 22:27N 54°20' E 010°09'0 0.0
2019-Jan-05 21:57N 54°20' E 010°09'0 0.0
2019-Jan-05 21:27N 54°20' E 010°09'0 0.0
2019-Jan-05 21:00N 54°20' E 010°09'0 0.0
2019-Jan-05 20:30N 54°20' E 010°09'0 0.0
2019-Jan-05 20:00N 54°20' E 010°09'0 0.0
2019-Jan-05 19:30N 54°20' E 010°09'0 0.0
2019-Jan-05 19:00N 54°20' E 010°09'0 0.0
2019-Jan-05 18:30N 54°20' E 010°09'0 0.0
2019-Jan-05 18:00N 54°20' E 010°09'0 0.0
2019-Jan-05 17:30N 54°20' E 010°09'0 0.0
2019-Jan-05 17:00N 54°20' E 010°09'0 0.0
2019-Jan-05 16:30N 54°20' E 010°09'0 0.0
2019-Jan-05 16:00N 54°20' E 010°09'0 0.0
2019-Jan-05 15:30N 54°20' E 010°09'0 0.0
2019-Jan-05 15:00N 54°20' E 010°09'0 0.0
2019-Jan-05 14:30N 54°20' E 010°09'  

Dump ship's entire track history